createdAt,value
2019-01-20T00:02:07.897Z,0.47
2019-01-20T00:04:37.372Z,0.37
2019-01-20T00:07:06.940Z,0.65
2019-01-20T00:09:36.646Z,0.50
2019-01-20T00:12:06.470Z,0.57
2019-01-20T00:14:36.379Z,0.42
2019-01-20T00:17:05.998Z,0.53
2019-01-20T00:19:37.528Z,0.40
2019-01-20T00:22:08.159Z,0.50
2019-01-20T00:25:17.169Z,0.25
2019-01-20T00:31:02.148Z,0.25
2019-01-20T00:33:31.718Z,0.68
2019-01-20T00:36:40.693Z,0.47
2019-01-20T00:48:15.708Z,0.78
2019-01-20T00:50:45.060Z,0.80
2019-01-20T00:53:14.469Z,1.20
2019-01-20T00:55:43.945Z,0.45
2019-01-20T00:58:13.326Z,1.17
2019-01-20T01:00:42.894Z,1.00
2019-01-20T01:03:12.342Z,0.82
2019-01-20T01:06:21.500Z,1.05
2019-01-20T01:09:30.877Z,1.07
2019-01-20T01:18:27.814Z,1.15
2019-01-20T01:20:57.308Z,0.95
2019-01-20T01:24:08.619Z,0.82
2019-01-20T01:26:40.309Z,1.02
2019-01-20T01:29:10.514Z,1.57
2019-01-20T01:31:39.967Z,1.25
2019-01-20T01:34:09.428Z,0.65
2019-01-20T01:36:38.844Z,1.20
2019-01-20T01:39:09.434Z,0.93
2019-01-20T01:41:39.403Z,1.70
2019-01-20T01:44:08.888Z,1.22
2019-01-20T01:46:38.308Z,0.93
2019-01-20T01:49:07.797Z,0.45
2019-01-20T01:51:37.278Z,0.55
2019-01-20T01:54:06.725Z,0.50
2019-01-20T01:56:36.598Z,0.50
2019-01-20T01:59:06.295Z,0.47
2019-01-20T02:01:35.869Z,0.40
2019-01-20T02:04:05.366Z,0.30
2019-01-20T02:06:34.738Z,0.50
2019-01-20T02:09:05.612Z,0.30
2019-01-20T02:11:35.456Z,0.40
2019-01-20T02:14:05.200Z,0.37
2019-01-20T02:16:34.591Z,0.25
2019-01-20T02:19:04.304Z,0.37
2019-01-20T02:21:34.031Z,0.20
2019-01-20T02:24:03.833Z,0.30
2019-01-20T02:26:33.342Z,0.40
2019-01-20T02:29:03.756Z,0.40
2019-01-20T02:31:33.230Z,0.30
2019-01-20T02:34:02.685Z,0.13
2019-01-20T02:36:32.167Z,0.30
2019-01-20T02:39:02.136Z,0.30
2019-01-20T02:41:31.539Z,0.45
2019-01-20T02:44:01.437Z,0.20
2019-01-20T02:46:30.817Z,0.35
2019-01-20T02:49:00.479Z,0.80
2019-01-20T02:51:30.400Z,0.25
2019-01-20T02:53:59.822Z,0.42
2019-01-20T02:56:29.667Z,0.72
2019-01-20T02:58:59.300Z,0.30
2019-01-20T03:01:29.072Z,0.35
2019-01-20T03:03:58.460Z,0.40
2019-01-20T03:06:27.991Z,0.20
2019-01-20T03:08:57.581Z,0.60
2019-01-20T03:11:26.960Z,0.60
2019-01-20T03:13:59.047Z,0.50
2019-01-20T03:16:28.667Z,0.10
2019-01-20T03:18:58.528Z,0.13
2019-01-20T03:21:28.447Z,0.33
2019-01-20T03:23:58.253Z,0.30
2019-01-20T03:26:27.683Z,0.50
2019-01-20T03:28:57.131Z,0.40
2019-01-20T03:31:26.508Z,0.40
2019-01-20T03:33:55.913Z,0.33
2019-01-20T03:36:26.941Z,0.60
2019-01-20T03:38:56.714Z,0.50
2019-01-20T03:41:26.061Z,0.40
2019-01-20T03:43:55.563Z,0.53
2019-01-20T03:46:24.985Z,0.57
2019-01-20T03:48:54.382Z,0.30
2019-01-20T03:51:23.934Z,0.40
2019-01-20T03:53:53.444Z,0.30
2019-01-20T03:56:23.073Z,0.40
2019-01-20T03:58:53.009Z,0.57
2019-01-20T04:01:22.835Z,0.20
2019-01-20T04:03:52.218Z,0.50
2019-01-20T04:06:21.688Z,0.30
2019-01-20T04:08:51.314Z,0.30
2019-01-20T04:11:20.743Z,0.60
2019-01-20T04:13:50.201Z,0.37
2019-01-20T04:16:19.677Z,0.25
2019-01-20T04:18:49.282Z,0.30
2019-01-20T04:21:18.718Z,0.40
2019-01-20T04:23:50.148Z,0.28
2019-01-20T04:26:19.650Z,0.50
2019-01-20T04:28:49.094Z,0.30
2019-01-20T04:31:20.878Z,0.40
2019-01-20T04:33:50.779Z,0.40
2019-01-20T04:36:20.223Z,0.45
2019-01-20T04:38:49.608Z,0.53
2019-01-20T04:41:19.041Z,0.20
2019-01-20T04:43:48.495Z,0.50
2019-01-20T04:46:18.019Z,0.50
2019-01-20T04:48:47.473Z,0.42
2019-01-20T04:51:17.877Z,0.30
2019-01-20T04:53:47.567Z,0.30
2019-01-20T04:56:17.300Z,0.40
2019-01-20T04:58:46.734Z,0.25
2019-01-20T05:01:16.924Z,0.30
2019-01-20T05:03:48.709Z,0.40
2019-01-20T05:06:18.146Z,0.10
2019-01-20T05:08:47.939Z,0.30
2019-01-20T05:11:17.467Z,0.30
2019-01-20T05:13:46.927Z,0.40
2019-01-20T05:16:16.301Z,0.10
2019-01-20T05:18:45.709Z,0.15
2019-01-20T05:21:15.231Z,0.23
2019-01-20T05:23:44.642Z,0.30
2019-01-20T05:26:14.169Z,0.40
2019-01-20T05:28:43.657Z,0.10
2019-01-20T05:31:13.009Z,0.20
2019-01-20T05:33:42.971Z,0.40
2019-01-20T05:36:13.527Z,0.40
2019-01-20T05:38:42.938Z,0.30
2019-01-20T05:41:12.584Z,0.30
2019-01-20T05:43:42.297Z,0.10
2019-01-20T05:46:11.651Z,0.35
2019-01-20T05:48:41.104Z,0.10
2019-01-20T05:51:10.861Z,0.30
2019-01-20T05:53:40.965Z,0.15
2019-01-20T05:56:31.634Z,0.37
2019-01-20T05:59:01.892Z,0.60
2019-01-20T06:01:31.326Z,0.40
2019-01-20T06:04:00.714Z,0.50
2019-01-20T06:06:31.018Z,0.20
2019-01-20T06:09:02.593Z,0.20
2019-01-20T06:11:32.273Z,0.40
2019-01-20T06:14:02.082Z,0.40
2019-01-20T06:16:34.075Z,0.40
2019-01-20T06:19:03.606Z,0.40
2019-01-20T06:21:33.089Z,0.50
2019-01-20T06:24:02.520Z,0.20
2019-01-20T06:26:31.909Z,0.10
2019-01-20T06:29:01.496Z,0.20
2019-01-20T06:31:31.321Z,0.47
2019-01-20T06:34:00.765Z,0.40
2019-01-20T06:36:30.134Z,0.50
2019-01-20T06:38:59.592Z,0.30
2019-01-20T06:41:29.181Z,0.30
2019-01-20T06:43:58.573Z,0.40
2019-01-20T06:46:27.979Z,0.23
2019-01-20T06:48:57.777Z,0.20
2019-01-20T06:51:27.180Z,0.35
2019-01-20T06:53:56.570Z,0.25
2019-01-20T06:56:26.435Z,0.20
2019-01-20T06:58:55.875Z,0.30
2019-01-20T07:01:25.537Z,0.17
2019-01-20T07:03:55.255Z,0.10
2019-01-20T07:06:24.640Z,0.40
2019-01-20T07:08:54.102Z,0.30
2019-01-20T07:11:23.879Z,0.45
2019-01-20T07:13:53.545Z,0.40
2019-01-20T07:16:25.198Z,0.45
2019-01-20T07:18:55.479Z,0.68
2019-01-20T07:21:25.296Z,0.30
2019-01-20T07:23:55.140Z,0.70
2019-01-20T07:26:25.098Z,0.50
2019-01-20T07:28:54.542Z,0.50
2019-01-20T07:31:24.762Z,0.47
2019-01-20T07:33:54.351Z,0.20
2019-01-20T07:36:23.848Z,0.62
2019-01-20T07:38:53.376Z,0.35
2019-01-20T07:41:22.814Z,0.30
2019-01-20T07:43:52.293Z,0.40
2019-01-20T07:46:21.896Z,0.57
2019-01-20T07:48:51.437Z,0.60
2019-01-20T07:51:21.346Z,0.50
2019-01-20T07:53:50.939Z,0.47
2019-01-20T07:56:20.687Z,0.47
2019-01-20T07:58:50.148Z,0.30
2019-01-20T08:01:20.034Z,0.45
2019-01-20T08:03:49.541Z,0.50
2019-01-20T08:06:19.542Z,0.57
2019-01-20T08:08:49.273Z,0.65
2019-01-20T08:11:18.714Z,0.20
2019-01-20T08:13:48.144Z,0.60
2019-01-20T08:16:18.019Z,0.40
2019-01-20T08:18:48.616Z,0.90
2019-01-20T08:21:18.853Z,0.60
2019-01-20T08:23:48.322Z,0.30
2019-01-20T08:26:18.025Z,0.47
2019-01-20T08:28:49.494Z,0.60
2019-01-20T08:31:19.103Z,0.40
2019-01-20T08:33:50.047Z,0.72
2019-01-20T08:36:19.423Z,0.60
2019-01-20T08:38:48.955Z,0.60
2019-01-20T08:41:18.741Z,0.62
2019-01-20T08:43:48.309Z,0.80
2019-01-20T08:46:55.778Z,0.78
2019-01-20T08:49:25.744Z,0.60
2019-01-20T08:51:55.181Z,0.82
2019-01-20T08:54:24.649Z,0.65
2019-01-20T08:56:55.607Z,0.80
2019-01-20T08:59:25.013Z,0.93
2019-01-20T09:01:55.145Z,0.78
2019-01-20T09:04:24.494Z,0.60
2019-01-20T09:06:53.989Z,0.70
2019-01-20T09:09:23.527Z,0.88
2019-01-20T09:11:53.432Z,0.88
2019-01-20T09:14:22.900Z,1.12
2019-01-20T09:16:52.877Z,0.70
2019-01-20T09:19:22.364Z,1.10
2019-01-20T09:21:51.803Z,0.90
2019-01-20T09:24:25.977Z,1.25
2019-01-20T09:26:55.450Z,1.20
2019-01-20T09:29:25.192Z,0.82
2019-01-20T09:31:54.684Z,1.17
2019-01-20T09:34:24.088Z,0.95
2019-01-20T09:36:53.708Z,1.30
2019-01-20T09:39:23.263Z,0.98
2019-01-20T09:41:53.183Z,0.85
2019-01-20T09:44:22.589Z,0.68
2019-01-20T09:46:52.607Z,1.00
2019-01-20T09:49:22.338Z,0.90
2019-01-20T09:51:54.142Z,0.80
2019-01-20T09:54:23.852Z,0.62
2019-01-20T09:56:54.192Z,0.85
2019-01-20T09:59:23.934Z,0.90
2019-01-20T10:01:53.379Z,0.57
2019-01-20T10:04:24.125Z,0.90
2019-01-20T10:06:53.480Z,0.50
2019-01-20T10:09:22.945Z,0.72
2019-01-20T10:11:54.011Z,0.68
2019-01-20T10:14:23.486Z,0.88
2019-01-20T10:16:53.078Z,0.85
2019-01-20T10:19:22.422Z,0.62
2019-01-20T10:21:52.056Z,0.88
2019-01-20T10:24:21.511Z,0.80
2019-01-20T10:26:51.014Z,1.15
2019-01-20T10:29:20.425Z,1.25
2019-01-20T10:31:50.719Z,0.90
2019-01-20T10:34:21.402Z,1.00
2019-01-20T10:36:53.661Z,1.00
2019-01-20T10:39:24.276Z,1.07
2019-01-20T10:41:54.044Z,0.80
2019-01-20T10:44:23.871Z,1.00
2019-01-20T10:46:54.054Z,1.00
2019-01-20T10:49:23.543Z,0.85
2019-01-20T10:51:52.962Z,1.00
2019-01-20T10:54:22.840Z,0.93
2019-01-20T10:56:52.280Z,0.90
2019-01-20T10:59:23.842Z,1.00
2019-01-20T11:01:54.128Z,1.00
2019-01-20T11:04:23.845Z,0.85
2019-01-20T11:06:53.949Z,1.05
2019-01-20T11:09:24.703Z,0.68
2019-01-20T11:11:54.464Z,0.78
2019-01-20T11:14:23.950Z,1.00
2019-01-20T11:16:54.206Z,1.07
2019-01-20T11:19:23.991Z,1.10
2019-01-20T11:21:53.468Z,0.90
2019-01-20T11:24:23.615Z,1.10
2019-01-20T11:26:53.197Z,0.98
2019-01-20T11:29:23.114Z,0.88
2019-01-20T11:31:52.558Z,1.00
2019-01-20T11:34:22.829Z,0.82
2019-01-20T11:36:52.360Z,1.10
2019-01-20T11:39:22.192Z,1.12
2019-01-20T11:41:52.089Z,1.10
2019-01-20T11:44:22.134Z,1.10
2019-01-20T11:46:51.603Z,0.80
2019-01-20T11:49:21.222Z,0.95
2019-01-20T11:51:51.674Z,1.17
2019-01-20T11:54:21.384Z,1.20
2019-01-20T11:56:50.815Z,0.80
2019-01-20T11:59:20.290Z,0.90
2019-01-20T12:01:50.932Z,0.95
2019-01-20T12:04:20.538Z,1.25
2019-01-20T12:06:51.137Z,1.32
2019-01-20T12:09:23.135Z,1.20
2019-01-20T12:11:52.884Z,1.47
2019-01-20T12:14:24.117Z,1.12
2019-01-20T12:16:54.222Z,0.75
2019-01-20T12:19:23.916Z,0.90
2019-01-20T12:21:54.262Z,1.10
2019-01-20T12:24:24.176Z,0.70
2019-01-20T12:26:54.374Z,0.90
2019-01-20T12:29:25.625Z,0.90
2019-01-20T12:31:55.683Z,1.20
2019-01-20T12:34:26.022Z,0.90
2019-01-20T12:36:56.104Z,0.90
2019-01-20T12:39:28.645Z,1.00
2019-01-20T12:41:58.384Z,1.13
2019-01-20T12:44:31.564Z,1.00
2019-01-20T12:47:00.138Z,1.07
2019-01-20T12:49:29.619Z,1.20
2019-01-20T12:52:00.905Z,0.90
2019-01-20T12:54:30.751Z,1.03
2019-01-20T12:57:00.892Z,1.17
2019-01-20T12:59:30.537Z,1.10
2019-01-20T13:02:00.529Z,1.37
2019-01-20T13:04:29.971Z,1.33
2019-01-20T13:06:59.808Z,1.70
2019-01-20T13:09:29.257Z,1.42
2019-01-20T13:11:58.684Z,1.30
2019-01-20T13:14:29.382Z,1.40
2019-01-20T13:16:59.238Z,1.20
2019-01-20T13:19:29.022Z,1.37
2019-01-20T13:21:58.448Z,1.10
2019-01-20T13:24:28.539Z,1.10
2019-01-20T13:26:58.145Z,1.22
2019-01-20T13:29:27.894Z,1.03
2019-01-20T13:32:18.215Z,1.20
2019-01-20T13:38:05.438Z,1.30
2019-01-20T13:40:56.147Z,1.35
2019-01-20T13:43:26.990Z,1.52
2019-01-20T13:45:56.751Z,1.17
2019-01-20T13:49:07.808Z,1.15
2019-01-20T13:51:58.063Z,1.47
2019-01-20T13:57:17.514Z,2.02
2019-01-20T13:59:48.670Z,1.85
2019-01-20T14:02:57.504Z,1.72
2019-01-20T14:06:06.935Z,1.75
2019-01-20T14:08:55.740Z,1.62
2019-01-20T14:11:25.801Z,1.75
2019-01-20T14:13:55.365Z,1.32
2019-01-20T14:17:05.241Z,1.47
2019-01-20T14:19:35.326Z,1.42
2019-01-20T14:22:44.456Z,1.25
2019-01-20T14:25:33.060Z,1.45
2019-01-20T14:28:43.870Z,1.80
2019-01-20T14:37:14.638Z,1.62
2019-01-20T14:46:14.379Z,1.77
2019-01-20T14:57:29.406Z,2.27
2019-01-20T14:59:59.200Z,2.10
2019-01-20T15:02:49.376Z,1.80
2019-01-20T15:05:19.060Z,2.00
2019-01-20T15:07:52.225Z,2.15
2019-01-20T15:10:21.963Z,1.80
2019-01-20T15:12:51.366Z,1.85
2019-01-20T15:15:24.041Z,1.87
2019-01-20T15:17:53.699Z,1.55
2019-01-20T15:20:23.333Z,1.57
2019-01-20T15:22:55.188Z,2.37
2019-01-20T15:26:04.334Z,1.60
2019-01-20T15:28:34.006Z,1.82
2019-01-20T15:31:03.798Z,1.85
2019-01-20T15:33:33.748Z,1.65
2019-01-20T15:39:13.326Z,1.87
2019-01-20T15:41:43.107Z,1.55
2019-01-20T15:44:12.869Z,1.85
2019-01-20T15:46:45.717Z,1.60
2019-01-20T15:49:15.801Z,1.82
2019-01-20T15:51:45.730Z,1.80
2019-01-20T15:54:15.318Z,1.60
2019-01-20T15:56:47.639Z,1.80
2019-01-20T15:59:56.455Z,1.62
2019-01-20T16:05:08.273Z,0.82
2019-01-20T16:07:40.225Z,1.20
2019-01-20T16:10:11.295Z,1.00
2019-01-20T16:15:28.175Z,1.77
2019-01-20T16:18:07.598Z,1.50
2019-01-20T16:26:01.501Z,1.37
2019-01-20T16:31:59.765Z,2.30
2019-01-20T16:37:43.781Z,1.10
2019-01-20T16:40:53.885Z,1.50
2019-01-20T16:43:24.834Z,1.20
2019-01-20T16:49:08.814Z,1.10
2019-01-20T16:51:38.485Z,1.10
2019-01-20T16:57:33.492Z,1.67
2019-01-20T17:11:49.016Z,1.12
2019-01-20T17:14:58.188Z,1.20
2019-01-20T17:17:28.550Z,1.60
2019-01-20T17:25:42.536Z,1.50
2019-01-20T17:28:12.214Z,1.20
2019-01-20T17:30:42.361Z,1.17
2019-01-20T17:33:52.430Z,1.32
2019-01-20T17:36:23.246Z,0.98
2019-01-20T17:41:49.463Z,0.90
2019-01-20T17:50:19.336Z,0.80
2019-01-20T17:52:49.122Z,1.02
2019-01-20T17:55:19.022Z,0.90
2019-01-20T17:57:48.985Z,1.17
2019-01-20T18:00:21.566Z,1.00
2019-01-20T18:02:51.270Z,1.10
2019-01-20T18:05:23.402Z,1.37
2019-01-20T18:07:53.534Z,1.42
2019-01-20T18:10:47.539Z,1.70
2019-01-20T18:13:17.535Z,1.17
2019-01-20T18:15:54.101Z,1.37
2019-01-20T18:18:19.065Z,1.00
2019-01-20T18:20:48.979Z,1.42
2019-01-20T18:23:18.918Z,0.95
2019-01-20T18:25:49.039Z,1.20
2019-01-20T18:28:18.797Z,1.32
2019-01-20T18:30:48.772Z,1.50
2019-01-20T18:33:18.643Z,1.42
2019-01-20T18:35:51.264Z,1.50
2019-01-20T18:38:21.111Z,1.20
2019-01-20T18:40:50.887Z,0.95
2019-01-20T18:43:20.760Z,0.80
2019-01-20T18:45:52.240Z,1.40
2019-01-20T18:48:22.386Z,0.90
2019-01-20T18:50:56.323Z,1.07
2019-01-20T18:54:08.277Z,1.00
2019-01-20T18:56:38.930Z,0.95
2019-01-20T18:59:09.683Z,1.42
2019-01-20T19:02:26.158Z,1.10
2019-01-20T19:07:55.525Z,1.00
2019-01-20T19:10:24.182Z,1.17
2019-01-20T19:12:54.179Z,1.02
2019-01-20T19:15:24.361Z,0.80
2019-01-20T19:21:09.090Z,0.80
2019-01-20T19:26:41.087Z,1.10
2019-01-20T19:29:49.989Z,1.42
2019-01-20T19:32:59.017Z,1.10
2019-01-20T19:35:48.343Z,1.15
2019-01-20T19:38:57.714Z,0.95
2019-01-20T19:44:45.134Z,0.95
2019-01-20T19:47:54.549Z,1.10
2019-01-20T19:50:26.077Z,1.20
2019-01-20T19:56:12.567Z,1.12
2019-01-20T20:02:11.617Z,1.02
2019-01-20T20:04:41.789Z,1.02
2019-01-20T20:07:32.593Z,0.90
2019-01-20T20:10:02.442Z,1.00
2019-01-20T20:13:11.692Z,1.75
2019-01-20T20:21:32.817Z,0.80
2019-01-20T20:26:55.795Z,1.30
2019-01-20T20:32:22.599Z,0.80
2019-01-20T20:37:46.905Z,1.05
2019-01-20T20:43:19.263Z,0.90
2019-01-20T20:45:49.849Z,0.80
2019-01-20T20:48:19.913Z,0.88
2019-01-20T20:51:29.131Z,0.80
2019-01-20T20:57:17.497Z,0.95
2019-01-20T21:03:04.852Z,0.85
2019-01-20T21:05:53.745Z,0.88
2019-01-20T21:11:19.497Z,0.95
2019-01-20T21:22:52.918Z,1.40
2019-01-20T21:28:17.306Z,1.25
2019-01-20T21:31:26.584Z,0.78
2019-01-20T21:34:35.665Z,0.90
2019-01-20T21:40:31.222Z,0.80
2019-01-20T21:46:16.624Z,1.17
2019-01-20T21:49:26.067Z,1.02
2019-01-20T21:51:55.521Z,0.72
2019-01-20T21:54:25.544Z,0.70
2019-01-20T21:57:34.467Z,0.68
2019-01-20T22:05:35.536Z,0.98
2019-01-20T22:11:08.032Z,0.80
2019-01-20T22:13:37.837Z,1.32
2019-01-20T22:16:52.765Z,0.80
2019-01-20T22:34:30.045Z,0.98
2019-01-20T22:37:01.886Z,1.00
2019-01-20T22:39:31.409Z,0.85
2019-01-20T22:42:21.625Z,1.00
2019-01-20T22:47:43.460Z,0.88
2019-01-20T22:52:53.537Z,1.20
2019-01-20T22:56:02.600Z,1.00
2019-01-20T22:58:32.106Z,0.72
2019-01-20T23:01:46.197Z,0.40
2019-01-20T23:04:16.663Z,0.68
2019-01-20T23:06:49.740Z,1.00
2019-01-20T23:09:19.883Z,0.90
2019-01-20T23:12:28.928Z,1.00
2019-01-20T23:14:58.313Z,0.90
2019-01-20T23:32:21.948Z,0.88
2019-01-20T23:38:07.527Z,0.37
2019-01-20T23:41:16.865Z,0.85
2019-01-20T23:44:25.931Z,0.42
2019-01-20T23:49:57.125Z,0.50
2019-01-20T23:53:05.913Z,0.40
2019-01-20T23:56:16.369Z,0.60
